< < Back
Terminal Aerodrome Forecast


Current Version              Previous Versions:   1  2  3  4  5  6  7  8  9  

Terminal Aerodrome Forecast

860
FTUS44 KOHX 262334
TAFCSV
TAF
KCSV 262334Z 2700/2724 00000KT P6SM BKN200
      TEMPO 2709/2712 3SM BR
     FM271600 24004KT P6SM SCT040 BKN200
     FM271800 33004KT P6SM VCTS BKN040CB=

Latest METAR

176
SAUS70 KWBC 270700 RRK
MTRCSV
METAR KCSV 270653Z AUTO 00000KT 10SM FEW070 BKN100 21/20 A3017 RMK AO2
RAB01E15 SLP198 P0001 T02110200


USA.gov is the U.S. government's official web portal to all federal, state and local government web resources and services.